KEAN

Phifer Airfield Airport

Wheatland, Wyoming, USA
METAR KEAN 141630Z AUTO 23012G19KT 10SM CLR 06/M13 A3027 RMK AO2 T00601132
Observed Flight Rules
Dec-14 @ 16:30 UTC (34 minutes ago) Visual Flight Rules
Wind Visibility Clouds
230° at 12 knots
 Gusting to 19 knots
10 miles
  • Clear skies
Temperatures Readings
Current 6°C / 43°F
Dewpoint -13°C / 9°F
Humidity 24%
Altimeter 30.27" Hg
Pressure 1025 hPa
Elevation 1456
METAR KEAN 141630Z AUTO 23012G19KT 10SM CLR 06/M13 A3027 RMK AO2 T00601132
Observed Flight Rules
Dec-14 @ 16:30 UTC
(34 minutes ago)
VFR
Wind Visibility
230° at 12 knots
 Gusting to 19 knots
10 miles
Clouds
  • Clear skies
Temperature Dewpoint
6°C / 43°F -13°C / 9°F
Humidity Altimeter Pressure
24% 30.27" Hg 1025 hPa